sensor_id;sensor_type;location;lat;lon;timestamp;temperature;humidity
674;DHT22;319;48.764;9.174;2024-02-04T00:00:36;10.90;99.40
674;DHT22;319;48.764;9.174;2024-02-04T00:03:03;10.80;99.40
674;DHT22;319;48.764;9.174;2024-02-04T00:05:30;10.80;99.40
674;DHT22;319;48.764;9.174;2024-02-04T00:07:57;10.80;99.50
674;DHT22;319;48.764;9.174;2024-02-04T00:10:24;10.80;99.60
674;DHT22;319;48.764;9.174;2024-02-04T00:12:54;10.80;99.60
674;DHT22;319;48.764;9.174;2024-02-04T00:15:21;10.80;99.70
674;DHT22;319;48.764;9.174;2024-02-04T00:17:48;10.70;99.60
674;DHT22;319;48.764;9.174;2024-02-04T00:20:15;10.70;99.70
674;DHT22;319;48.764;9.174;2024-02-04T00:22:42;10.60;99.70
674;DHT22;319;48.764;9.174;2024-02-04T00:25:09;10.50;99.90
674;DHT22;319;48.764;9.174;2024-02-04T00:27:37;10.40;99.90
674;DHT22;319;48.764;9.174;2024-02-04T00:30:07;10.40;99.90
674;DHT22;319;48.764;9.174;2024-02-04T00:32:34;10.30;99.90
674;DHT22;319;48.764;9.174;2024-02-04T00:35:01;10.30;99.90
674;DHT22;319;48.764;9.174;2024-02-04T00:37:30;10.20;99.90
674;DHT22;319;48.764;9.174;2024-02-04T00:39:58;10.20;99.90
674;DHT22;319;48.764;9.174;2024-02-04T00:42:25;10.20;99.90
674;DHT22;319;48.764;9.174;2024-02-04T00:44:52;10.20;99.90
674;DHT22;319;48.764;9.174;2024-02-04T00:47:20;10.20;99.90
674;DHT22;319;48.764;9.174;2024-02-04T00:49:47;10.20;99.90
674;DHT22;319;48.764;9.174;2024-02-04T00:52:14;10.30;99.90
674;DHT22;319;48.764;9.174;2024-02-04T00:54:41;10.20;99.90
674;DHT22;319;48.764;9.174;2024-02-04T00:57:08;10.20;99.90
674;DHT22;319;48.764;9.174;2024-02-04T00:59:35;10.20;99.90
674;DHT22;319;48.764;9.174;2024-02-04T01:02:02;10.20;99.90
674;DHT22;319;48.764;9.174;2024-02-04T01:04:30;10.20;99.90
674;DHT22;319;48.764;9.174;2024-02-04T01:06:57;10.20;99.90
674;DHT22;319;48.764;9.174;2024-02-04T01:09:24;10.20;99.90
674;DHT22;319;48.764;9.174;2024-02-04T01:11:51;10.20;99.90
674;DHT22;319;48.764;9.174;2024-02-04T01:14:18;10.30;99.90
674;DHT22;319;48.764;9.174;2024-02-04T01:16:45;10.30;99.90
674;DHT22;319;48.764;9.174;2024-02-04T01:19:12;10.40;99.90
674;DHT22;319;48.764;9.174;2024-02-04T01:21:40;10.40;99.90
674;DHT22;319;48.764;9.174;2024-02-04T01:24:07;10.40;99.90
674;DHT22;319;48.764;9.174;2024-02-04T01:26:34;10.40;99.90
674;DHT22;319;48.764;9.174;2024-02-04T01:29:01;10.30;99.90
674;DHT22;319;48.764;9.174;2024-02-04T01:31:28;10.30;99.90
674;DHT22;319;48.764;9.174;2024-02-04T01:33:55;10.30;99.90
674;DHT22;319;48.764;9.174;2024-02-04T01:36:22;10.20;99.90
674;DHT22;319;48.764;9.174;2024-02-04T01:38:51;10.10;99.90
674;DHT22;319;48.764;9.174;2024-02-04T01:41:17;10.10;99.90
674;DHT22;319;48.764;9.174;2024-02-04T01:43:44;10.10;99.90
674;DHT22;319;48.764;9.174;2024-02-04T01:46:11;10.10;99.90
674;DHT22;319;48.764;9.174;2024-02-04T01:48:39;10.10;99.90
674;DHT22;319;48.764;9.174;2024-02-04T01:51:06;10.00;99.90
674;DHT22;319;48.764;9.174;2024-02-04T01:53:34;9.90;99.90
674;DHT22;319;48.764;9.174;2024-02-04T01:56:04;9.90;99.90
674;DHT22;319;48.764;9.174;2024-02-04T01:58:32;9.90;99.90
674;DHT22;319;48.764;9.174;2024-02-04T02:01:00;10.00;99.90
674;DHT22;319;48.764;9.174;2024-02-04T02:03:28;10.00;99.90
674;DHT22;319;48.764;9.174;2024-02-04T02:05:55;10.10;99.90
674;DHT22;319;48.764;9.174;2024-02-04T02:08:22;10.10;99.90
674;DHT22;319;48.764;9.174;2024-02-04T02:10:52;10.10;99.90
674;DHT22;319;48.764;9.174;2024-02-04T02:13:26;10.10;99.90
674;DHT22;319;48.764;9.174;2024-02-04T02:15:58;10.20;99.90
674;DHT22;319;48.764;9.174;2024-02-04T02:18:34;10.20;99.90
674;DHT22;319;48.764;9.174;2024-02-04T02:21:16;10.20;99.90
674;DHT22;319;48.764;9.174;2024-02-04T02:23:53;10.20;99.90
674;DHT22;319;48.764;9.174;2024-02-04T02:26:28;10.20;99.90
674;DHT22;319;48.764;9.174;2024-02-04T02:28:56;10.20;99.90
674;DHT22;319;48.764;9.174;2024-02-04T02:31:23;10.20;99.90
674;DHT22;319;48.764;9.174;2024-02-04T02:33:50;10.20;99.90
674;DHT22;319;48.764;9.174;2024-02-04T02:36:21;10.20;99.90
674;DHT22;319;48.764;9.174;2024-02-04T02:38:55;10.30;99.90
674;DHT22;319;48.764;9.174;2024-02-04T02:41:23;10.40;99.90
674;DHT22;319;48.764;9.174;2024-02-04T02:43:54;10.30;99.90
674;DHT22;319;48.764;9.174;2024-02-04T02:46:22;10.30;99.90
674;DHT22;319;48.764;9.174;2024-02-04T02:48:49;10.40;99.90
674;DHT22;319;48.764;9.174;2024-02-04T02:51:16;10.40;99.90
674;DHT22;319;48.764;9.174;2024-02-04T02:53:43;10.40;99.90
674;DHT22;319;48.764;9.174;2024-02-04T02:56:10;10.30;99.90
674;DHT22;319;48.764;9.174;2024-02-04T02:58:37;10.30;99.90
674;DHT22;319;48.764;9.174;2024-02-04T03:01:06;10.30;99.90
674;DHT22;319;48.764;9.174;2024-02-04T03:03:32;10.30;99.90
674;DHT22;319;48.764;9.174;2024-02-04T03:05:59;10.20;99.90
674;DHT22;319;48.764;9.174;2024-02-04T03:08:26;10.30;99.90
674;DHT22;319;48.764;9.174;2024-02-04T03:10:53;10.30;99.90
674;DHT22;319;48.764;9.174;2024-02-04T03:13:20;10.30;99.90
674;DHT22;319;48.764;9.174;2024-02-04T03:15:47;10.30;99.90
674;DHT22;319;48.764;9.174;2024-02-04T03:18:15;10.20;99.90
674;DHT22;319;48.764;9.174;2024-02-04T03:20:42;10.20;99.90
674;DHT22;319;48.764;9.174;2024-02-04T03:23:09;10.10;99.90
674;DHT22;319;48.764;9.174;2024-02-04T03:25:36;10.10;99.90
674;DHT22;319;48.764;9.174;2024-02-04T03:28:04;10.20;99.90
674;DHT22;319;48.764;9.174;2024-02-04T03:30:31;10.20;99.90
674;DHT22;319;48.764;9.174;2024-02-04T03:32:57;10.20;99.90
674;DHT22;319;48.764;9.174;2024-02-04T03:35:26;10.30;99.90
674;DHT22;319;48.764;9.174;2024-02-04T03:37:52;10.40;99.90
674;DHT22;319;48.764;9.174;2024-02-04T03:40:19;10.40;99.90
674;DHT22;319;48.764;9.174;2024-02-04T03:42:50;10.40;99.90
674;DHT22;319;48.764;9.174;2024-02-04T03:45:19;10.40;99.90
674;DHT22;319;48.764;9.174;2024-02-04T03:47:46;10.40;99.90
674;DHT22;319;48.764;9.174;2024-02-04T03:50:13;10.40;99.90
674;DHT22;319;48.764;9.174;2024-02-04T03:52:41;10.40;99.90
674;DHT22;319;48.764;9.174;2024-02-04T03:55:09;10.30;99.90
674;DHT22;319;48.764;9.174;2024-02-04T03:57:36;10.40;99.90
674;DHT22;319;48.764;9.174;2024-02-04T04:00:03;10.50;99.90
674;DHT22;319;48.764;9.174;2024-02-04T04:02:30;10.50;99.90
674;DHT22;319;48.764;9.174;2024-02-04T04:04:57;10.50;99.90
674;DHT22;319;48.764;9.174;2024-02-04T04:07:24;10.50;99.90
674;DHT22;319;48.764;9.174;2024-02-04T04:09:52;10.40;99.90
674;DHT22;319;48.764;9.174;2024-02-04T04:12:19;10.40;99.90
674;DHT22;319;48.764;9.174;2024-02-04T04:14:46;10.40;99.90
674;DHT22;319;48.764;9.174;2024-02-04T04:17:13;10.50;99.90
674;DHT22;319;48.764;9.174;2024-02-04T04:19:40;10.50;99.90
674;DHT22;319;48.764;9.174;2024-02-04T04:22:06;10.50;99.90
674;DHT22;319;48.764;9.174;2024-02-04T04:24:34;10.50;99.90
674;DHT22;319;48.764;9.174;2024-02-04T04:27:02;10.50;99.90
674;DHT22;319;48.764;9.174;2024-02-04T04:29:29;10.50;99.90
674;DHT22;319;48.764;9.174;2024-02-04T04:31:56;10.60;99.90
674;DHT22;319;48.764;9.174;2024-02-04T04:34:23;10.50;99.90
674;DHT22;319;48.764;9.174;2024-02-04T04:36:50;10.60;99.90
674;DHT22;319;48.764;9.174;2024-02-04T04:39:17;10.60;99.90
674;DHT22;319;48.764;9.174;2024-02-04T04:41:44;10.50;99.90
674;DHT22;319;48.764;9.174;2024-02-04T04:44:13;10.50;99.90
674;DHT22;319;48.764;9.174;2024-02-04T04:46:40;10.60;99.90
674;DHT22;319;48.764;9.174;2024-02-04T04:49:07;10.60;99.90
674;DHT22;319;48.764;9.174;2024-02-04T04:51:34;10.60;99.90
674;DHT22;319;48.764;9.174;2024-02-04T04:54:00;10.60;99.90
674;DHT22;319;48.764;9.174;2024-02-04T04:56:27;10.60;99.90
674;DHT22;319;48.764;9.174;2024-02-04T04:58:54;10.60;99.90
674;DHT22;319;48.764;9.174;2024-02-04T05:01:23;10.60;99.90
674;DHT22;319;48.764;9.174;2024-02-04T05:03:53;10.60;99.90
674;DHT22;319;48.764;9.174;2024-02-04T05:06:19;10.50;99.90
674;DHT22;319;48.764;9.174;2024-02-04T05:08:46;10.50;99.90
674;DHT22;319;48.764;9.174;2024-02-04T05:11:13;10.50;99.90
674;DHT22;319;48.764;9.174;2024-02-04T05:13:40;10.40;99.90
674;DHT22;319;48.764;9.174;2024-02-04T05:16:07;10.40;99.90
674;DHT22;319;48.764;9.174;2024-02-04T05:18:35;10.40;99.90
674;DHT22;319;48.764;9.174;2024-02-04T05:21:03;10.40;99.90
674;DHT22;319;48.764;9.174;2024-02-04T05:23:30;10.40;99.90
674;DHT22;319;48.764;9.174;2024-02-04T05:25:56;10.40;99.90
674;DHT22;319;48.764;9.174;2024-02-04T05:28:23;10.40;99.90
674;DHT22;319;48.764;9.174;2024-02-04T05:30:50;10.40;99.90
674;DHT22;319;48.764;9.174;2024-02-04T05:33:17;10.40;99.90
674;DHT22;319;48.764;9.174;2024-02-04T05:35:45;10.40;99.90
674;DHT22;319;48.764;9.174;2024-02-04T05:38:22;10.30;99.90
674;DHT22;319;48.764;9.174;2024-02-04T05:40:49;10.20;99.90
674;DHT22;319;48.764;9.174;2024-02-04T05:43:16;10.20;99.90
674;DHT22;319;48.764;9.174;2024-02-04T05:45:43;10.20;99.90
674;DHT22;319;48.764;9.174;2024-02-04T05:48:10;10.20;99.90
674;DHT22;319;48.764;9.174;2024-02-04T05:50:37;10.20;99.90
674;DHT22;319;48.764;9.174;2024-02-04T05:53:05;10.20;99.90
674;DHT22;319;48.764;9.174;2024-02-04T05:55:32;10.20;99.90
674;DHT22;319;48.764;9.174;2024-02-04T05:57:59;10.20;99.90
674;DHT22;319;48.764;9.174;2024-02-04T06:00:26;10.10;99.90
674;DHT22;319;48.764;9.174;2024-02-04T06:02:53;10.20;99.90
674;DHT22;319;48.764;9.174;2024-02-04T06:05:20;10.10;99.90
674;DHT22;319;48.764;9.174;2024-02-04T06:07:47;10.10;99.90
674;DHT22;319;48.764;9.174;2024-02-04T06:10:15;10.20;99.90
674;DHT22;319;48.764;9.174;2024-02-04T06:12:44;10.10;99.90
674;DHT22;319;48.764;9.174;2024-02-04T06:15:12;10.10;99.90
674;DHT22;319;48.764;9.174;2024-02-04T06:17:40;10.10;99.90
674;DHT22;319;48.764;9.174;2024-02-04T06:20:08;10.00;99.90
674;DHT22;319;48.764;9.174;2024-02-04T06:22:36;10.00;99.90
674;DHT22;319;48.764;9.174;2024-02-04T06:25:03;10.10;99.90
674;DHT22;319;48.764;9.174;2024-02-04T06:27:32;10.20;99.90
674;DHT22;319;48.764;9.174;2024-02-04T06:29:59;10.20;99.90
674;DHT22;319;48.764;9.174;2024-02-04T06:32:26;10.10;99.90
674;DHT22;319;48.764;9.174;2024-02-04T06:34:53;10.10;99.90
674;DHT22;319;48.764;9.174;2024-02-04T06:37:21;10.10;99.90
674;DHT22;319;48.764;9.174;2024-02-04T06:39:48;10.10;99.90
674;DHT22;319;48.764;9.174;2024-02-04T06:42:15;10.10;99.90
674;DHT22;319;48.764;9.174;2024-02-04T06:44:44;10.20;99.90
674;DHT22;319;48.764;9.174;2024-02-04T06:47:11;10.10;99.90
674;DHT22;319;48.764;9.174;2024-02-04T06:49:39;10.10;99.90
674;DHT22;319;48.764;9.174;2024-02-04T06:52:06;10.00;99.90
674;DHT22;319;48.764;9.174;2024-02-04T06:54:34;10.00;99.90
674;DHT22;319;48.764;9.174;2024-02-04T06:57:01;10.00;99.90
674;DHT22;319;48.764;9.174;2024-02-04T06:59:28;10.00;99.90
674;DHT22;319;48.764;9.174;2024-02-04T07:01:56;10.00;99.90
674;DHT22;319;48.764;9.174;2024-02-04T07:04:23;9.90;99.90
674;DHT22;319;48.764;9.174;2024-02-04T07:06:51;9.90;99.90
674;DHT22;319;48.764;9.174;2024-02-04T07:09:18;9.80;99.90
674;DHT22;319;48.764;9.174;2024-02-04T07:11:45;9.80;99.90
674;DHT22;319;48.764;9.174;2024-02-04T07:14:12;9.80;99.90
674;DHT22;319;48.764;9.174;2024-02-04T07:16:39;9.70;99.90
674;DHT22;319;48.764;9.174;2024-02-04T07:19:08;9.60;99.90
674;DHT22;319;48.764;9.174;2024-02-04T07:21:35;9.60;99.90
674;DHT22;319;48.764;9.174;2024-02-04T07:24:02;9.60;99.90
674;DHT22;319;48.764;9.174;2024-02-04T07:26:29;9.60;99.90
674;DHT22;319;48.764;9.174;2024-02-04T07:28:57;9.70;99.90
674;DHT22;319;48.764;9.174;2024-02-04T07:31:24;9.70;99.90
674;DHT22;319;48.764;9.174;2024-02-04T07:33:51;9.60;99.90
674;DHT22;319;48.764;9.174;2024-02-04T07:36:19;9.60;99.90
674;DHT22;319;48.764;9.174;2024-02-04T07:38:46;9.60;99.90
674;DHT22;319;48.764;9.174;2024-02-04T07:41:14;9.70;99.90
674;DHT22;319;48.764;9.174;2024-02-04T07:43:42;9.70;99.90
674;DHT22;319;48.764;9.174;2024-02-04T07:46:09;9.70;99.90
674;DHT22;319;48.764;9.174;2024-02-04T07:48:36;9.70;99.90
674;DHT22;319;48.764;9.174;2024-02-04T07:51:03;9.80;99.90
674;DHT22;319;48.764;9.174;2024-02-04T07:53:35;9.80;99.90
674;DHT22;319;48.764;9.174;2024-02-04T07:56:03;9.90;99.90
674;DHT22;319;48.764;9.174;2024-02-04T07:58:32;9.90;99.90
674;DHT22;319;48.764;9.174;2024-02-04T08:00:59;9.90;99.90
674;DHT22;319;48.764;9.174;2024-02-04T08:03:25;9.90;99.90
674;DHT22;319;48.764;9.174;2024-02-04T08:05:52;9.90;99.90
674;DHT22;319;48.764;9.174;2024-02-04T08:08:19;10.00;99.90
674;DHT22;319;48.764;9.174;2024-02-04T08:10:47;10.00;99.90
674;DHT22;319;48.764;9.174;2024-02-04T08:13:14;9.90;99.90
674;DHT22;319;48.764;9.174;2024-02-04T08:15:41;10.00;99.90
674;DHT22;319;48.764;9.174;2024-02-04T08:18:08;10.00;99.90
674;DHT22;319;48.764;9.174;2024-02-04T08:20:35;10.00;99.90
674;DHT22;319;48.764;9.174;2024-02-04T08:23:02;10.00;99.90
674;DHT22;319;48.764;9.174;2024-02-04T08:25:29;10.00;99.90
674;DHT22;319;48.764;9.174;2024-02-04T08:27:58;10.10;99.90
674;DHT22;319;48.764;9.174;2024-02-04T08:30:25;10.00;99.90
674;DHT22;319;48.764;9.174;2024-02-04T08:32:53;10.10;99.90
674;DHT22;319;48.764;9.174;2024-02-04T08:35:23;10.10;99.90
674;DHT22;319;48.764;9.174;2024-02-04T08:37:50;10.20;99.90
674;DHT22;319;48.764;9.174;2024-02-04T08:40:17;10.30;99.90
674;DHT22;319;48.764;9.174;2024-02-04T08:42:45;10.40;99.90
674;DHT22;319;48.764;9.174;2024-02-04T08:45:14;10.50;99.90
674;DHT22;319;48.764;9.174;2024-02-04T08:47:41;10.60;99.90
674;DHT22;319;48.764;9.174;2024-02-04T08:50:09;10.60;99.90
674;DHT22;319;48.764;9.174;2024-02-04T08:52:37;10.60;99.90
674;DHT22;319;48.764;9.174;2024-02-04T08:55:06;10.70;99.90
674;DHT22;319;48.764;9.174;2024-02-04T08:57:34;10.80;99.90
674;DHT22;319;48.764;9.174;2024-02-04T09:00:01;10.90;99.90
674;DHT22;319;48.764;9.174;2024-02-04T09:02:30;10.90;99.90
674;DHT22;319;48.764;9.174;2024-02-04T09:04:56;11.00;99.90
674;DHT22;319;48.764;9.174;2024-02-04T09:07:23;11.00;99.90
674;DHT22;319;48.764;9.174;2024-02-04T09:09:50;11.10;99.90
674;DHT22;319;48.764;9.174;2024-02-04T09:12:17;11.10;99.90
674;DHT22;319;48.764;9.174;2024-02-04T09:14:44;11.30;99.90
674;DHT22;319;48.764;9.174;2024-02-04T09:17:11;11.30;99.90
674;DHT22;319;48.764;9.174;2024-02-04T09:19:40;11.40;99.70
674;DHT22;319;48.764;9.174;2024-02-04T09:22:07;11.60;99.60
674;DHT22;319;48.764;9.174;2024-02-04T09:24:34;11.70;99.40
674;DHT22;319;48.764;9.174;2024-02-04T09:27:02;11.70;99.40
674;DHT22;319;48.764;9.174;2024-02-04T09:29:29;11.80;99.10
674;DHT22;319;48.764;9.174;2024-02-04T09:31:57;11.90;99.00
674;DHT22;319;48.764;9.174;2024-02-04T09:34:24;11.90;98.90
674;DHT22;319;48.764;9.174;2024-02-04T09:36:53;12.00;98.80
674;DHT22;319;48.764;9.174;2024-02-04T09:39:20;12.10;98.60
674;DHT22;319;48.764;9.174;2024-02-04T09:41:47;12.10;98.40
674;DHT22;319;48.764;9.174;2024-02-04T09:44:14;12.20;98.20
674;DHT22;319;48.764;9.174;2024-02-04T09:46:41;12.30;98.20
674;DHT22;319;48.764;9.174;2024-02-04T09:49:09;12.50;98.10
674;DHT22;319;48.764;9.174;2024-02-04T09:51:39;12.90;97.70
674;DHT22;319;48.764;9.174;2024-02-04T09:54:10;13.10;97.20
674;DHT22;319;48.764;9.174;2024-02-04T09:56:38;13.20;96.60
674;DHT22;319;48.764;9.174;2024-02-04T09:59:05;13.20;96.30
674;DHT22;319;48.764;9.174;2024-02-04T10:01:32;13.40;96.40
674;DHT22;319;48.764;9.174;2024-02-04T10:03:59;13.30;96.10
674;DHT22;319;48.764;9.174;2024-02-04T10:06:26;13.00;96.20
674;DHT22;319;48.764;9.174;2024-02-04T10:08:53;13.00;96.60
674;DHT22;319;48.764;9.174;2024-02-04T10:11:22;12.90;96.60
674;DHT22;319;48.764;9.174;2024-02-04T10:13:50;12.90;96.70
674;DHT22;319;48.764;9.174;2024-02-04T10:16:17;12.90;96.80
674;DHT22;319;48.764;9.174;2024-02-04T10:18:45;13.00;96.80
674;DHT22;319;48.764;9.174;2024-02-04T10:21:16;13.10;96.80
674;DHT22;319;48.764;9.174;2024-02-04T10:23:53;13.30;96.40
674;DHT22;319;48.764;9.174;2024-02-04T10:26:23;13.40;96.10
674;DHT22;319;48.764;9.174;2024-02-04T10:28:57;13.60;96.00
674;DHT22;319;48.764;9.174;2024-02-04T10:31:25;13.70;95.70
674;DHT22;319;48.764;9.174;2024-02-04T10:34:23;13.80;95.50
674;DHT22;319;48.764;9.174;2024-02-04T10:36:52;13.70;95.30
674;DHT22;319;48.764;9.174;2024-02-04T10:39:20;13.70;95.40
674;DHT22;319;48.764;9.174;2024-02-04T10:41:52;13.90;95.30
674;DHT22;319;48.764;9.174;2024-02-04T10:44:22;14.10;95.20
674;DHT22;319;48.764;9.174;2024-02-04T10:46:50;14.20;95.00
674;DHT22;319;48.764;9.174;2024-02-04T10:49:19;14.40;94.80
674;DHT22;319;48.764;9.174;2024-02-04T10:51:46;14.70;94.50
674;DHT22;319;48.764;9.174;2024-02-04T10:54:15;15.00;93.80
674;DHT22;319;48.764;9.174;2024-02-04T10:56:44;15.20;93.60
674;DHT22;319;48.764;9.174;2024-02-04T10:59:15;15.10;93.30
674;DHT22;319;48.764;9.174;2024-02-04T11:02:01;15.10;93.60
674;DHT22;319;48.764;9.174;2024-02-04T11:04:38;15.00;93.50
674;DHT22;319;48.764;9.174;2024-02-04T11:07:06;15.00;93.50
674;DHT22;319;48.764;9.174;2024-02-04T11:09:34;15.00;93.60
674;DHT22;319;48.764;9.174;2024-02-04T11:12:04;15.00;93.60
674;DHT22;319;48.764;9.174;2024-02-04T11:14:35;15.00;93.60
674;DHT22;319;48.764;9.174;2024-02-04T11:17:21;15.10;93.80
674;DHT22;319;48.764;9.174;2024-02-04T11:20:01;15.10;93.60
674;DHT22;319;48.764;9.174;2024-02-04T11:22:57;15.10;93.50
674;DHT22;319;48.764;9.174;2024-02-04T11:25:43;15.20;93.60
674;DHT22;319;48.764;9.174;2024-02-04T11:28:15;15.50;93.50
674;DHT22;319;48.764;9.174;2024-02-04T11:30:47;15.50;93.10
674;DHT22;319;48.764;9.174;2024-02-04T11:33:18;15.60;93.00
674;DHT22;319;48.764;9.174;2024-02-04T11:35:45;15.70;92.80
674;DHT22;319;48.764;9.174;2024-02-04T11:38:17;15.70;92.80
674;DHT22;319;48.764;9.174;2024-02-04T11:41:05;15.90;92.70
674;DHT22;319;48.764;9.174;2024-02-04T11:43:39;16.10;92.80
674;DHT22;319;48.764;9.174;2024-02-04T11:46:27;16.10;92.50
674;DHT22;319;48.764;9.174;2024-02-04T11:48:55;16.10;92.30
674;DHT22;319;48.764;9.174;2024-02-04T11:51:24;16.00;92.30
674;DHT22;319;48.764;9.174;2024-02-04T11:53:54;16.00;92.30
674;DHT22;319;48.764;9.174;2024-02-04T11:56:25;16.00;92.40
674;DHT22;319;48.764;9.174;2024-02-04T11:58:52;16.00;92.30
674;DHT22;319;48.764;9.174;2024-02-04T12:01:21;15.80;92.30
674;DHT22;319;48.764;9.174;2024-02-04T12:03:50;15.80;92.60
674;DHT22;319;48.764;9.174;2024-02-04T12:06:18;15.70;92.60
674;DHT22;319;48.764;9.174;2024-02-04T12:08:45;15.50;92.70
674;DHT22;319;48.764;9.174;2024-02-04T12:11:15;15.40;93.00
674;DHT22;319;48.764;9.174;2024-02-04T12:13:43;15.20;93.30
674;DHT22;319;48.764;9.174;2024-02-04T12:16:10;14.90;93.70
674;DHT22;319;48.764;9.174;2024-02-04T12:18:48;14.70;94.00
674;DHT22;319;48.764;9.174;2024-02-04T12:21:16;14.60;94.20
674;DHT22;319;48.764;9.174;2024-02-04T12:23:43;14.40;94.40
674;DHT22;319;48.764;9.174;2024-02-04T12:26:10;14.20;94.60
674;DHT22;319;48.764;9.174;2024-02-04T12:28:37;14.20;95.00
674;DHT22;319;48.764;9.174;2024-02-04T12:31:04;14.10;95.20
674;DHT22;319;48.764;9.174;2024-02-04T12:33:31;13.90;95.40
674;DHT22;319;48.764;9.174;2024-02-04T12:36:00;13.90;95.70
674;DHT22;319;48.764;9.174;2024-02-04T12:38:27;13.90;95.60
674;DHT22;319;48.764;9.174;2024-02-04T12:41:01;14.00;95.50
674;DHT22;319;48.764;9.174;2024-02-04T12:43:28;14.10;95.40
674;DHT22;319;48.764;9.174;2024-02-04T12:45:56;14.10;95.40
674;DHT22;319;48.764;9.174;2024-02-04T12:48:24;14.20;95.40
674;DHT22;319;48.764;9.174;2024-02-04T12:50:54;14.20;95.20
674;DHT22;319;48.764;9.174;2024-02-04T12:53:22;14.40;95.10
674;DHT22;319;48.764;9.174;2024-02-04T12:55:58;14.50;94.90
674;DHT22;319;48.764;9.174;2024-02-04T12:58:26;14.40;94.80
674;DHT22;319;48.764;9.174;2024-02-04T13:01:00;14.30;94.90
674;DHT22;319;48.764;9.174;2024-02-04T13:03:29;14.30;95.10
674;DHT22;319;48.764;9.174;2024-02-04T13:05:58;14.30;95.00
674;DHT22;319;48.764;9.174;2024-02-04T13:08:27;14.30;95.10
674;DHT22;319;48.764;9.174;2024-02-04T13:10:56;14.30;95.00
674;DHT22;319;48.764;9.174;2024-02-04T13:13:23;14.50;95.00
674;DHT22;319;48.764;9.174;2024-02-04T13:15:52;14.60;94.70
674;DHT22;319;48.764;9.174;2024-02-04T13:18:19;14.70;94.50
674;DHT22;319;48.764;9.174;2024-02-04T13:20:46;14.60;94.40
674;DHT22;319;48.764;9.174;2024-02-04T13:23:14;14.50;94.60
674;DHT22;319;48.764;9.174;2024-02-04T13:25:42;14.60;94.60
674;DHT22;319;48.764;9.174;2024-02-04T13:28:10;14.60;94.40
674;DHT22;319;48.764;9.174;2024-02-04T13:30:38;14.50;94.50
674;DHT22;319;48.764;9.174;2024-02-04T13:33:05;14.40;94.50
674;DHT22;319;48.764;9.174;2024-02-04T13:35:35;14.40;94.70
674;DHT22;319;48.764;9.174;2024-02-04T13:38:02;14.40;94.70
674;DHT22;319;48.764;9.174;2024-02-04T13:40:31;14.40;94.80
674;DHT22;319;48.764;9.174;2024-02-04T13:43:00;14.40;94.80
674;DHT22;319;48.764;9.174;2024-02-04T13:45:27;14.30;94.70
674;DHT22;319;48.764;9.174;2024-02-04T13:47:54;14.20;94.90
674;DHT22;319;48.764;9.174;2024-02-04T13:50:21;14.10;95.10
674;DHT22;319;48.764;9.174;2024-02-04T13:52:48;14.20;95.00
674;DHT22;319;48.764;9.174;2024-02-04T13:55:15;14.30;95.10
674;DHT22;319;48.764;9.174;2024-02-04T13:57:42;14.30;95.00
674;DHT22;319;48.764;9.174;2024-02-04T14:00:12;14.30;95.00
674;DHT22;319;48.764;9.174;2024-02-04T14:02:39;14.40;95.10
674;DHT22;319;48.764;9.174;2024-02-04T14:05:09;14.50;94.90
674;DHT22;319;48.764;9.174;2024-02-04T14:07:36;14.40;94.90
674;DHT22;319;48.764;9.174;2024-02-04T14:10:04;14.40;94.80
674;DHT22;319;48.764;9.174;2024-02-04T14:12:32;14.40;95.00
674;DHT22;319;48.764;9.174;2024-02-04T14:15:00;14.30;94.90
674;DHT22;319;48.764;9.174;2024-02-04T14:17:31;14.30;95.00
674;DHT22;319;48.764;9.174;2024-02-04T14:19:58;14.30;95.00
674;DHT22;319;48.764;9.174;2024-02-04T14:22:24;14.30;95.10
674;DHT22;319;48.764;9.174;2024-02-04T14:24:51;14.30;95.10
674;DHT22;319;48.764;9.174;2024-02-04T14:27:18;14.30;95.20
674;DHT22;319;48.764;9.174;2024-02-04T14:29:45;14.30;95.20
674;DHT22;319;48.764;9.174;2024-02-04T14:32:12;14.30;95.10
674;DHT22;319;48.764;9.174;2024-02-04T14:34:40;14.20;95.10
674;DHT22;319;48.764;9.174;2024-02-04T14:37:08;14.20;95.10
674;DHT22;319;48.764;9.174;2024-02-04T14:39:36;14.20;95.40
674;DHT22;319;48.764;9.174;2024-02-04T14:42:06;14.10;95.50
674;DHT22;319;48.764;9.174;2024-02-04T14:44:37;14.00;95.50
674;DHT22;319;48.764;9.174;2024-02-04T14:47:07;14.00;95.50
674;DHT22;319;48.764;9.174;2024-02-04T14:49:33;14.00;95.60
674;DHT22;319;48.764;9.174;2024-02-04T14:52:04;14.00;95.70
674;DHT22;319;48.764;9.174;2024-02-04T14:54:31;13.90;95.50
674;DHT22;319;48.764;9.174;2024-02-04T14:56:58;13.90;95.60
674;DHT22;319;48.764;9.174;2024-02-04T14:59:25;13.80;95.70
674;DHT22;319;48.764;9.174;2024-02-04T15:01:52;13.70;95.80
674;DHT22;319;48.764;9.174;2024-02-04T15:04:19;13.50;95.90
674;DHT22;319;48.764;9.174;2024-02-04T15:06:45;13.40;96.20
674;DHT22;319;48.764;9.174;2024-02-04T15:09:14;13.40;96.40
674;DHT22;319;48.764;9.174;2024-02-04T15:11:41;13.40;96.30
674;DHT22;319;48.764;9.174;2024-02-04T15:14:09;13.30;96.50
674;DHT22;319;48.764;9.174;2024-02-04T15:16:36;13.40;96.60
674;DHT22;319;48.764;9.174;2024-02-04T15:19:05;13.40;96.60
674;DHT22;319;48.764;9.174;2024-02-04T15:21:33;13.30;96.70
674;DHT22;319;48.764;9.174;2024-02-04T15:24:00;13.30;96.80
674;DHT22;319;48.764;9.174;2024-02-04T15:26:32;13.20;96.80
674;DHT22;319;48.764;9.174;2024-02-04T15:29:02;13.20;96.90
674;DHT22;319;48.764;9.174;2024-02-04T15:31:30;13.10;96.90
674;DHT22;319;48.764;9.174;2024-02-04T15:33:59;13.20;97.10
674;DHT22;319;48.764;9.174;2024-02-04T15:36:26;13.10;97.20
674;DHT22;319;48.764;9.174;2024-02-04T15:38:53;13.10;97.30
674;DHT22;319;48.764;9.174;2024-02-04T15:41:20;13.00;97.20
674;DHT22;319;48.764;9.174;2024-02-04T15:43:48;13.00;97.30
674;DHT22;319;48.764;9.174;2024-02-04T15:46:17;12.90;97.50
674;DHT22;319;48.764;9.174;2024-02-04T15:48:46;12.80;97.70
674;DHT22;319;48.764;9.174;2024-02-04T15:51:16;12.80;97.80
674;DHT22;319;48.764;9.174;2024-02-04T15:53:44;12.80;97.90
674;DHT22;319;48.764;9.174;2024-02-04T15:56:11;12.70;98.00
674;DHT22;319;48.764;9.174;2024-02-04T15:58:39;12.70;98.00
674;DHT22;319;48.764;9.174;2024-02-04T16:01:10;12.60;98.10
674;DHT22;319;48.764;9.174;2024-02-04T16:03:38;12.40;98.20
674;DHT22;319;48.764;9.174;2024-02-04T16:06:06;12.40;98.50
674;DHT22;319;48.764;9.174;2024-02-04T16:08:34;12.40;98.60
674;DHT22;319;48.764;9.174;2024-02-04T16:11:05;12.40;98.70
674;DHT22;319;48.764;9.174;2024-02-04T16:13:38;12.40;98.70
674;DHT22;319;48.764;9.174;2024-02-04T16:16:13;12.40;98.70
674;DHT22;319;48.764;9.174;2024-02-04T16:18:41;12.20;98.80
674;DHT22;319;48.764;9.174;2024-02-04T16:21:08;12.10;99.10
674;DHT22;319;48.764;9.174;2024-02-04T16:23:36;12.00;99.50
674;DHT22;319;48.764;9.174;2024-02-04T16:26:03;11.90;99.70
674;DHT22;319;48.764;9.174;2024-02-04T16:28:30;11.80;99.90
674;DHT22;319;48.764;9.174;2024-02-04T16:30:57;11.80;99.90
674;DHT22;319;48.764;9.174;2024-02-04T16:33:26;11.70;99.90
674;DHT22;319;48.764;9.174;2024-02-04T16:35:53;11.70;99.90
674;DHT22;319;48.764;9.174;2024-02-04T16:38:19;11.70;99.90
674;DHT22;319;48.764;9.174;2024-02-04T16:40:46;11.60;99.90
674;DHT22;319;48.764;9.174;2024-02-04T16:43:13;11.50;99.90